Time;durP1;ratioP1;P1;durP2;ratioP2;P2;SDS_P1;SDS_P2;PMS_P1;PMS_P2;Temp;Humidity;BMP_temperature;BMP_pressure;BME280_temperature;BME280_humidity;BME280_pressure;Samples;Min_cycle;Max_cycle;Signal;HPM_P1;HPM_P2
2021/11/11 00:02:23;;;;;;;12.25;9.05;;;11.90;99.90;;;;;;4947976;28;20039;-76
2021/11/11 00:04:48;;;;;;;12.63;8.93;;;11.90;99.90;;;;;;4940876;28;20028;-76
2021/11/11 00:07:14;;;;;;;11.00;8.02;;;11.80;99.90;;;;;;4937824;28;20040;-76
2021/11/11 00:09:40;;;;;;;11.13;8.65;;;11.80;99.90;;;;;;4937201;28;20027;-75
2021/11/11 00:12:06;;;;;;;15.07;8.70;;;11.80;99.90;;;;;;4938371;28;20039;-75
2021/11/11 00:14:32;;;;;;;10.73;8.35;;;11.70;99.90;;;;;;4944671;29;21117;-75
2021/11/11 00:16:57;;;;;;;10.77;8.25;;;11.70;99.90;;;;;;4942924;28;20063;-75
2021/11/11 00:19:23;;;;;;;12.15;8.18;;;11.70;99.90;;;;;;4944813;28;20027;-75
2021/11/11 00:21:49;;;;;;;12.20;8.38;;;11.60;99.90;;;;;;4960899;28;20027;-75
2021/11/11 00:24:15;;;;;;;13.40;8.52;;;11.60;99.90;;;;;;4936636;28;20082;-75
2021/11/11 00:26:42;;;;;;;13.30;8.32;;;11.60;99.90;;;;;;4933363;28;20038;-75
2021/11/11 00:29:08;;;;;;;12.18;7.50;;;11.60;99.90;;;;;;4936306;28;20113;-75
2021/11/11 00:31:34;;;;;;;11.30;8.38;;;11.60;99.90;;;;;;4949372;28;20505;-76
2021/11/11 00:33:59;;;;;;;15.25;8.10;;;11.60;99.90;;;;;;4947219;28;20366;-75
2021/11/11 00:36:25;;;;;;;12.75;8.90;;;11.60;99.90;;;;;;4949238;28;20031;-76
2021/11/11 00:38:51;;;;;;;10.27;7.88;;;11.60;99.90;;;;;;4937832;29;20588;-76
2021/11/11 00:41:16;;;;;;;9.55;8.45;;;11.50;99.90;;;;;;4945185;28;20023;-75
2021/11/11 00:43:43;;;;;;;10.40;8.25;;;11.50;99.90;;;;;;4946218;28;20102;-76
2021/11/11 00:46:09;;;;;;;12.85;8.32;;;11.50;99.90;;;;;;4934950;28;20036;-76
2021/11/11 00:48:35;;;;;;;9.13;7.78;;;11.40;99.90;;;;;;4937496;28;20047;-76
2021/11/11 00:51:01;;;;;;;8.85;7.95;;;11.40;99.90;;;;;;4939680;28;20031;-76
2021/11/11 00:53:27;;;;;;;10.88;7.88;;;11.40;99.90;;;;;;4942326;28;20047;-76
2021/11/11 00:55:52;;;;;;;12.27;8.30;;;11.40;99.90;;;;;;4943146;28;20023;-76
2021/11/11 00:58:18;;;;;;;10.25;8.10;;;11.40;99.90;;;;;;4941991;28;20028;-77
2021/11/11 01:00:44;;;;;;;9.68;8.60;;;11.40;99.90;;;;;;4941210;28;20485;-76
2021/11/11 01:03:13;;;;;;;11.60;8.48;;;11.40;99.90;;;;;;4936010;28;20035;-76
2021/11/11 01:05:39;;;;;;;16.33;8.98;;;11.40;99.90;;;;;;4937390;28;20677;-76
2021/11/11 01:08:06;;;;;;;9.90;8.27;;;11.50;99.90;;;;;;4946402;28;20074;-75
2021/11/11 01:10:32;;;;;;;14.45;8.77;;;11.50;99.90;;;;;;4945837;28;20549;-76
2021/11/11 01:12:57;;;;;;;11.05;8.80;;;11.50;99.90;;;;;;4940905;28;20035;-76
2021/11/11 01:15:27;;;;;;;9.48;8.00;;;11.50;99.90;;;;;;4939565;28;20049;-76
2021/11/11 01:17:53;;;;;;;12.35;8.45;;;11.50;99.90;;;;;;4941069;28;20119;-75
2021/11/11 01:20:20;;;;;;;11.95;8.55;;;11.50;99.90;;;;;;4940036;28;20486;-76
2021/11/11 01:22:48;;;;;;;11.32;8.32;;;11.50;99.90;;;;;;4943730;28;20024;-76
2021/11/11 01:25:19;;;;;;;10.35;7.95;;;11.50;99.90;;;;;;4944892;28;20677;-76
2021/11/11 01:27:45;;;;;;;12.93;8.63;;;11.50;99.90;;;;;;4941386;28;20074;-76
2021/11/11 01:30:12;;;;;;;10.02;7.80;;;11.50;99.90;;;;;;4933046;28;20389;-77
2021/11/11 01:32:37;;;;;;;10.65;8.13;;;11.40;99.90;;;;;;4938531;28;20027;-76
2021/11/11 01:35:04;;;;;;;12.18;7.93;;;11.40;99.90;;;;;;4939027;28;20036;-77
2021/11/11 01:37:30;;;;;;;11.75;8.20;;;11.40;99.90;;;;;;4936646;28;20367;-76
2021/11/11 01:39:56;;;;;;;12.15;8.30;;;11.40;99.90;;;;;;4940118;28;20077;-77
2021/11/11 01:42:21;;;;;;;10.98;8.77;;;11.40;99.90;;;;;;4935901;28;20028;-77
2021/11/11 01:44:55;;;;;;;14.05;8.93;;;11.30;99.90;;;;;;4932353;28;20023;-77
2021/11/11 01:47:21;;;;;;;10.93;8.48;;;11.40;99.90;;;;;;4935621;28;20533;-76
2021/11/11 01:49:47;;;;;;;13.43;8.32;;;11.30;99.90;;;;;;4940945;28;20601;-77
2021/11/11 01:52:17;;;;;;;11.60;7.65;;;11.30;99.90;;;;;;4938022;28;20045;-76
2021/11/11 01:54:43;;;;;;;11.27;8.30;;;11.30;99.90;;;;;;4957198;28;20028;-77
2021/11/11 01:57:09;;;;;;;10.32;8.02;;;11.30;99.90;;;;;;4948535;28;20077;-77
2021/11/11 01:59:35;;;;;;;13.77;8.57;;;11.30;99.90;;;;;;4943397;28;20032;-77
2021/11/11 02:02:01;;;;;;;12.52;8.63;;;11.40;99.90;;;;;;4949791;28;20030;-78
2021/11/11 02:04:27;;;;;;;10.13;8.02;;;11.40;99.90;;;;;;4943192;28;20114;-77
2021/11/11 02:06:53;;;;;;;10.35;8.43;;;11.30;99.90;;;;;;4947532;28;20112;-77
2021/11/11 02:09:19;;;;;;;10.30;8.20;;;11.40;99.90;;;;;;4943040;28;20050;-77
2021/11/11 02:11:47;;;;;;;9.90;8.15;;;11.40;99.90;;;;;;4947995;28;20109;-76
2021/11/11 02:14:15;;;;;;;12.65;7.82;;;11.40;99.90;;;;;;4933525;28;20024;-76
2021/11/11 02:16:41;;;;;;;10.13;8.18;;;11.40;99.90;;;;;;4933568;28;20106;-76
2021/11/11 02:19:08;;;;;;;9.50;8.25;;;11.40;99.90;;;;;;4943130;28;20019;-76
2021/11/11 02:21:37;;;;;;;15.68;8.05;;;11.30;99.90;;;;;;4932763;28;20390;-76
2021/11/11 02:24:03;;;;;;;10.32;7.93;;;11.40;99.90;;;;;;4942034;28;20558;-77
2021/11/11 02:26:29;;;;;;;11.45;8.02;;;11.40;99.90;;;;;;4932451;28;20036;-77
2021/11/11 02:28:55;;;;;;;11.73;7.70;;;11.40;99.90;;;;;;4941376;28;20030;-76
2021/11/11 02:31:21;;;;;;;13.20;7.93;;;11.40;99.90;;;;;;4932899;28;20073;-76
2021/11/11 02:33:54;;;;;;;11.00;8.23;;;11.40;99.90;;;;;;4936224;28;20031;-76
2021/11/11 02:36:20;;;;;;;8.85;7.47;;;11.40;99.90;;;;;;4949999;28;20505;-76
2021/11/11 02:38:46;;;;;;;13.02;7.93;;;11.30;99.90;;;;;;4940085;28;20054;-76
2021/11/11 02:41:12;;;;;;;13.38;7.97;;;11.30;99.90;;;;;;4951120;28;20397;-76
2021/11/11 02:43:38;;;;;;;10.93;8.43;;;11.20;99.90;;;;;;4943191;28;20114;-76
2021/11/11 02:46:04;;;;;;;10.75;7.50;;;11.20;99.90;;;;;;4930769;28;20039;-76
2021/11/11 02:48:30;;;;;;;9.70;7.90;;;11.20;99.90;;;;;;4933679;28;20032;-76
2021/11/11 02:50:56;;;;;;;13.80;8.95;;;11.20;99.90;;;;;;4931724;28;20028;-77
2021/11/11 02:53:23;;;;;;;12.25;8.63;;;11.20;99.90;;;;;;4940960;28;20104;-76
2021/11/11 02:55:50;;;;;;;9.85;7.82;;;11.20;99.90;;;;;;4931943;28;20110;-77
2021/11/11 02:58:16;;;;;;;12.60;7.95;;;11.20;99.90;;;;;;4939967;28;20031;-77
2021/11/11 03:00:45;;;;;;;9.68;8.02;;;11.20;99.90;;;;;;4932641;28;20055;-77
2021/11/11 03:03:11;;;;;;;10.20;7.70;;;11.20;99.90;;;;;;4936486;28;20028;-77
2021/11/11 03:05:38;;;;;;;9.52;7.85;;;11.20;99.90;;;;;;4947782;28;20030;-77
2021/11/11 03:08:04;;;;;;;11.50;7.72;;;11.10;99.90;;;;;;4945824;28;20478;-76
2021/11/11 03:10:31;;;;;;;10.98;7.72;;;11.10;99.90;;;;;;4934125;28;20110;-77
2021/11/11 03:12:59;;;;;;;9.57;8.00;;;11.10;99.90;;;;;;4936852;28;20028;-76
2021/11/11 03:15:27;;;;;;;12.52;7.75;;;11.10;99.90;;;;;;4946562;28;20070;-77
2021/11/11 03:17:53;;;;;;;11.18;7.85;;;11.10;99.90;;;;;;4944541;28;20053;-77
2021/11/11 03:20:19;;;;;;;11.73;7.90;;;11.10;99.90;;;;;;4933596;28;20114;-77
2021/11/11 03:22:45;;;;;;;11.73;8.10;;;11.10;99.90;;;;;;4935346;28;20119;-77
2021/11/11 03:25:17;;;;;;;11.52;8.52;;;11.10;99.90;;;;;;4938022;28;20074;-76
2021/11/11 03:27:43;;;;;;;9.97;7.47;;;11.00;99.90;;;;;;4942292;28;20031;-77
2021/11/11 03:30:14;;;;;;;10.80;7.82;;;11.10;99.90;;;;;;4944345;28;20038;-76
2021/11/11 03:32:41;;;;;;;10.95;8.18;;;11.10;99.90;;;;;;4940075;28;20491;-76
2021/11/11 03:35:07;;;;;;;11.68;8.50;;;11.10;99.90;;;;;;4945796;28;20119;-76
2021/11/11 03:37:33;;;;;;;13.25;8.20;;;11.10;99.90;;;;;;4943197;28;20024;-76
2021/11/11 03:40:00;;;;;;;9.93;7.47;;;11.10;99.90;;;;;;4946236;28;20575;-76
2021/11/11 03:42:26;;;;;;;10.25;7.88;;;11.00;99.90;;;;;;4943905;28;20028;-76
2021/11/11 03:44:52;;;;;;;10.73;8.10;;;11.00;99.90;;;;;;4931482;28;20031;-76
2021/11/11 03:47:19;;;;;;;9.00;7.45;;;11.10;99.90;;;;;;4932076;28;20209;-76
2021/11/11 03:49:45;;;;;;;10.57;8.07;;;11.10;99.90;;;;;;4939423;28;20391;-76
2021/11/11 03:52:12;;;;;;;11.07;7.55;;;11.10;99.90;;;;;;4942780;28;20031;-76
2021/11/11 03:54:38;;;;;;;12.60;8.40;;;11.00;99.90;;;;;;4937890;28;20086;-76
2021/11/11 03:57:04;;;;;;;11.43;8.13;;;11.00;99.90;;;;;;4941773;28;20028;-76
2021/11/11 03:59:30;;;;;;;9.05;8.13;;;11.00;99.90;;;;;;4939629;28;20506;-77
2021/11/11 04:01:56;;;;;;;9.90;7.88;;;11.00;99.90;;;;;;4935503;28;20035;-77
2021/11/11 04:04:22;;;;;;;10.63;8.18;;;10.90;99.90;;;;;;4939126;28;20031;-76
2021/11/11 04:06:49;;;;;;;10.57;8.05;;;10.90;99.90;;;;;;4940275;28;20599;-76
2021/11/11 04:09:14;;;;;;;11.98;8.90;;;10.90;99.90;;;;;;4939487;28;20019;-76
2021/11/11 04:11:41;;;;;;;12.52;8.27;;;10.90;99.90;;;;;;4931163;28;20425;-75
2021/11/11 04:14:07;;;;;;;9.80;8.25;;;10.80;99.90;;;;;;4940417;28;20092;-75
2021/11/11 04:16:33;;;;;;;12.07;8.45;;;10.80;99.90;;;;;;4947938;28;20054;-75
2021/11/11 04:19:00;;;;;;;9.70;8.02;;;10.70;99.90;;;;;;4936886;28;20028;-75
2021/11/11 04:21:25;;;;;;;10.35;8.35;;;10.70;99.90;;;;;;4948892;28;20023;-76
2021/11/11 04:23:53;;;;;;;11.43;8.65;;;10.70;99.90;;;;;;4941304;28;20031;-76
2021/11/11 04:26:28;;;;;;;10.52;8.13;;;10.70;99.90;;;;;;4930392;28;20040;-75
2021/11/11 04:31:26;;;;;;;12.25;9.20;;;10.70;99.90;;;;;;4944482;28;20056;-76
2021/11/11 04:33:56;;;;;;;11.35;7.78;;;10.70;99.90;;;;;;4940238;28;20019;-76
2021/11/11 04:39:10;;;;;;;10.35;7.95;;;10.60;99.90;;;;;;4942030;28;20031;-75
2021/11/11 04:41:51;;;;;;;10.73;8.50;;;10.60;99.90;;;;;;4941905;28;20432;-75
2021/11/11 04:44:35;;;;;;;12.45;8.85;;;10.60;99.90;;;;;;4941626;28;20520;-75
2021/11/11 05:05:48;;;;;;;10.07;8.40;;;10.40;99.90;;;;;;4952259;29;20173;-75
2021/11/11 05:08:14;;;;;;;12.95;8.63;;;10.40;99.90;;;;;;4946491;28;20545;-75
2021/11/11 05:10:40;;;;;;;15.52;8.80;;;10.30;99.90;;;;;;4934403;28;20303;-75
2021/11/11 05:13:06;;;;;;;11.93;8.68;;;10.30;99.90;;;;;;4938826;28;20113;-75
2021/11/11 05:15:32;;;;;;;12.02;8.90;;;10.30;99.90;;;;;;4948763;28;20093;-75
2021/11/11 05:17:58;;;;;;;11.77;8.05;;;10.30;99.90;;;;;;4946314;28;20038;-75
2021/11/11 05:20:23;;;;;;;12.90;8.70;;;10.30;99.90;;;;;;4939631;28;20030;-75
2021/11/11 05:22:50;;;;;;;14.45;9.07;;;10.30;99.90;;;;;;4938174;28;20398;-75
2021/11/11 05:25:16;;;;;;;17.15;9.13;;;10.20;99.90;;;;;;4933266;28;20028;-76
2021/11/11 05:27:44;;;;;;;15.52;9.95;;;10.20;99.90;;;;;;4945824;28;20040;-76
2021/11/11 05:30:12;;;;;;;14.82;9.38;;;10.30;99.90;;;;;;4956242;28;20028;-76
2021/11/11 05:32:38;;;;;;;10.23;8.88;;;10.40;99.90;;;;;;4948551;28;20033;-75
2021/11/11 05:35:05;;;;;;;11.18;8.63;;;10.30;99.90;;;;;;4939360;28;20027;-75
2021/11/11 05:37:31;;;;;;;15.27;9.13;;;10.30;99.90;;;;;;4941549;28;20035;-76
2021/11/11 05:39:57;;;;;;;11.02;9.30;;;10.30;99.90;;;;;;4953775;28;20574;-77
2021/11/11 05:42:23;;;;;;;11.18;8.80;;;10.30;99.90;;;;;;4957895;28;20031;-76
2021/11/11 05:44:49;;;;;;;11.98;9.32;;;10.20;99.90;;;;;;4951380;28;20020;-76
2021/11/11 05:47:15;;;;;;;13.82;9.38;;;10.20;99.90;;;;;;4962231;28;20056;-77
2021/11/11 05:49:41;;;;;;;12.73;8.50;;;10.10;99.90;;;;;;4944663;28;20025;-77
2021/11/11 05:52:07;;;;;;;13.63;9.23;;;10.10;99.90;;;;;;4947546;28;20476;-75
2021/11/11 05:54:37;;;;;;;19.20;10.23;;;10.10;99.90;;;;;;4957377;28;20114;-76
2021/11/11 05:57:03;;;;;;;16.90;9.65;;;10.10;99.90;;;;;;4947856;28;20394;-81
2021/11/11 05:59:29;;;;;;;15.15;9.73;;;10.10;99.90;;;;;;4941905;28;20023;-81
2021/11/11 06:01:55;;;;;;;18.85;10.57;;;10.10;99.90;;;;;;4997529;28;20518;-77
2021/11/11 06:04:21;;;;;;;15.82;10.45;;;10.10;99.90;;;;;;4937911;28;20028;-79
2021/11/11 06:06:47;;;;;;;12.43;8.95;;;10.10;99.90;;;;;;4933420;28;20023;-79
2021/11/11 06:09:12;;;;;;;14.10;9.82;;;10.10;99.90;;;;;;4941373;28;20334;-79
2021/11/11 06:11:38;;;;;;;14.05;10.35;;;10.00;99.90;;;;;;4948971;28;20028;-78
2021/11/11 06:14:04;;;;;;;17.23;10.73;;;10.10;99.90;;;;;;4947079;28;20034;-80
2021/11/11 06:16:29;;;;;;;14.50;10.20;;;10.10;99.90;;;;;;4947419;28;20486;-79
2021/11/11 06:18:55;;;;;;;15.63;10.63;;;10.10;99.90;;;;;;4942656;29;20061;-78
2021/11/11 06:21:24;;;;;;;15.95;10.13;;;10.10;99.90;;;;;;4930152;28;20031;-78
2021/11/11 06:23:51;;;;;;;11.80;9.75;;;10.10;99.90;;;;;;4938575;28;20039;-77
2021/11/11 06:26:21;;;;;;;21.73;10.48;;;10.20;99.90;;;;;;4949407;28;20031;-77
2021/11/11 06:28:48;;;;;;;12.68;9.88;;;10.30;99.90;;;;;;4938327;28;20177;-77
2021/11/11 06:31:13;;;;;;;18.35;10.10;;;10.40;99.90;;;;;;4941060;28;20035;-77
2021/11/11 06:33:39;;;;;;;14.40;10.02;;;10.40;99.90;;;;;;4941504;28;20401;-77
2021/11/11 06:36:05;;;;;;;14.82;9.93;;;10.50;99.90;;;;;;4929505;28;20036;-78
2021/11/11 06:38:31;;;;;;;14.55;9.88;;;10.60;99.90;;;;;;4937375;28;20437;-78
2021/11/11 06:40:57;;;;;;;17.30;10.32;;;10.60;99.90;;;;;;4951193;28;20646;-79
2021/11/11 06:43:22;;;;;;;15.73;10.50;;;10.70;99.90;;;;;;4944869;28;20122;-78
2021/11/11 06:45:48;;;;;;;12.57;10.13;;;10.90;99.90;;;;;;4930889;28;20028;-77
2021/11/11 06:48:15;;;;;;;15.07;9.63;;;11.00;99.90;;;;;;4939762;28;20750;-81
2021/11/11 06:50:43;;;;;;;15.25;8.73;;;11.10;99.90;;;;;;4939299;28;20095;-77
2021/11/11 06:53:11;;;;;;;13.25;9.43;;;11.20;99.90;;;;;;4947322;28;20556;-77
2021/11/11 06:55:39;;;;;;;15.20;9.90;;;11.30;99.90;;;;;;4932890;28;20154;-77
2021/11/11 06:58:06;;;;;;;14.45;9.98;;;11.50;99.90;;;;;;4939785;28;20547;-77
2021/11/11 07:00:32;;;;;;;17.30;9.75;;;11.50;99.90;;;;;;4933891;28;20031;-80
2021/11/11 07:02:58;;;;;;;15.98;8.93;;;11.60;99.90;;;;;;4938929;28;20024;-77
2021/11/11 07:05:24;;;;;;;16.88;9.55;;;11.70;99.90;;;;;;4933745;28;20085;-75
2021/11/11 07:07:50;;;;;;;14.00;10.00;;;11.80;99.90;;;;;;4937680;28;20050;-75
2021/11/11 07:10:16;;;;;;;16.33;10.20;;;11.90;99.90;;;;;;4935801;28;20085;-84
2021/11/11 07:12:44;;;;;;;14.73;9.75;;;12.00;99.90;;;;;;4935851;28;20474;-77
2021/11/11 07:15:14;;;;;;;15.18;9.73;;;12.10;99.90;;;;;;4945262;28;20405;-78
2021/11/11 07:17:40;;;;;;;20.80;9.23;;;12.20;99.90;;;;;;4941114;28;20032;-76
2021/11/11 07:20:09;;;;;;;17.67;9.25;;;12.30;99.90;;;;;;4937022;28;20147;-75
2021/11/11 07:22:35;;;;;;;15.60;9.95;;;12.40;99.90;;;;;;4934360;28;20173;-75
2021/11/11 07:25:01;;;;;;;19.48;10.15;;;12.50;99.90;;;;;;4937664;28;20153;-76
2021/11/11 07:27:27;;;;;;;19.48;9.52;;;12.50;99.90;;;;;;4936136;28;20114;-76
2021/11/11 07:29:52;;;;;;;15.98;9.38;;;12.60;99.90;;;;;;4932390;28;20028;-77
2021/11/11 07:32:18;;;;;;;18.50;9.85;;;12.70;99.90;;;;;;4932533;28;20529;-78
2021/11/11 07:34:44;;;;;;;23.60;10.38;;;12.70;99.90;;;;;;4946413;28;20024;-89
2021/11/11 07:37:10;;;;;;;30.17;10.30;;;12.80;99.90;;;;;;4937769;28;20035;-79
2021/11/11 07:39:36;;;;;;;21.45;9.70;;;13.00;99.90;;;;;;4942112;28;20019;-76
2021/11/11 07:42:03;;;;;;;21.27;10.23;;;13.00;99.90;;;;;;4947022;28;20032;-76
2021/11/11 07:44:28;;;;;;;24.92;9.45;;;13.10;99.90;;;;;;4940374;28;20019;-75
2021/11/11 07:46:54;;;;;;;16.48;9.15;;;13.20;99.90;;;;;;4947325;28;20031;-76
2021/11/11 07:49:20;;;;;;;12.40;8.82;;;13.20;99.90;;;;;;4939373;28;20020;-77
2021/11/11 07:51:46;;;;;;;34.30;9.85;;;13.30;99.90;;;;;;4931526;28;20089;-75
2021/11/11 07:54:12;;;;;;;19.08;9.02;;;13.40;99.90;;;;;;4939701;28;20571;-76
2021/11/11 07:56:38;;;;;;;14.95;8.73;;;13.60;99.90;;;;;;4932028;29;20038;-75
2021/11/11 07:59:05;;;;;;;16.00;9.15;;;13.60;99.90;;;;;;4940529;28;20032;-75
2021/11/11 08:01:32;;;;;;;15.77;8.68;;;13.80;99.90;;;;;;4931132;28;20081;-77
2021/11/11 08:03:58;;;;;;;14.00;8.82;;;13.80;99.90;;;;;;4941163;28;20028;-76
2021/11/11 08:06:24;;;;;;;15.15;8.82;;;14.00;99.90;;;;;;4933392;28;20123;-75
2021/11/11 08:08:49;;;;;;;11.13;8.13;;;14.10;99.90;;;;;;4943284;28;20122;-75
2021/11/11 08:11:15;;;;;;;18.85;8.48;;;14.20;99.90;;;;;;4934100;28;20028;-76
2021/11/11 08:13:41;;;;;;;13.25;8.02;;;14.30;99.90;;;;;;4944730;28;20113;-75
2021/11/11 08:16:06;;;;;;;14.60;7.93;;;14.40;99.90;;;;;;4933646;28;20043;-76
2021/11/11 08:18:32;;;;;;;10.35;8.38;;;14.50;99.90;;;;;;4944755;28;20389;-76
2021/11/11 08:20:58;;;;;;;30.33;9.07;;;14.60;99.90;;;;;;4933798;28;20077;-76
2021/11/11 08:23:24;;;;;;;14.98;8.43;;;14.80;99.90;;;;;;4944680;28;20469;-74
2021/11/11 08:25:51;;;;;;;11.90;7.97;;;14.90;99.90;;;;;;4952368;28;20039;-76
2021/11/11 08:28:19;;;;;;;12.00;8.82;;;15.00;99.90;;;;;;4946551;28;20040;-76
2021/11/11 08:30:46;;;;;;;13.38;8.43;;;15.10;99.90;;;;;;4933240;28;20024;-75
2021/11/11 08:33:11;;;;;;;17.27;8.68;;;15.10;99.90;;;;;;4942514;28;20027;-77
2021/11/11 08:35:38;;;;;;;12.45;8.05;;;15.20;99.90;;;;;;4942429;28;20376;-75
2021/11/11 08:38:04;;;;;;;12.88;8.95;;;15.30;99.90;;;;;;4956163;28;20490;-75
2021/11/11 08:40:30;;;;;;;13.30;8.82;;;15.40;99.90;;;;;;4935519;28;20063;-75
2021/11/11 08:42:59;;;;;;;20.70;8.60;;;15.50;99.90;;;;;;4946030;28;20035;-76
2021/11/11 08:45:27;;;;;;;17.38;8.93;;;15.60;99.90;;;;;;4933504;28;20027;-75
2021/11/11 08:47:53;;;;;;;20.27;10.70;;;15.80;99.90;;;;;;4939991;28;20038;-75
2021/11/11 08:50:20;;;;;;;20.92;11.18;;;15.80;99.90;;;;;;4937409;28;20035;-74
2021/11/11 08:52:48;;;;;;;22.83;11.65;;;15.70;99.90;;;;;;4939129;28;20118;-75
2021/11/11 08:55:19;;;;;;;17.70;12.65;;;15.70;99.90;;;;;;4953643;28;20058;-75
2021/11/11 08:57:45;;;;;;;29.60;17.30;;;15.70;99.90;;;;;;4937410;28;20023;-76
2021/11/11 09:00:22;;;;;;;31.17;19.30;;;15.60;99.90;;;;;;4946441;28;20150;-75
2021/11/11 09:02:51;;;;;;;39.08;20.63;;;15.60;99.90;;;;;;4946726;28;20015;-75
2021/11/11 09:05:17;;;;;;;35.05;20.23;;;15.60;99.90;;;;;;4934648;28;20486;-75
2021/11/11 09:07:44;;;;;;;33.53;18.70;;;15.70;99.90;;;;;;4937081;28;20113;-75
2021/11/11 09:10:18;;;;;;;20.08;14.55;;;15.80;99.90;;;;;;4941466;28;20023;-75
2021/11/11 09:12:46;;;;;;;21.15;13.82;;;15.80;99.90;;;;;;4954888;28;20110;-76
2021/11/11 09:15:15;;;;;;;25.85;14.95;;;15.90;99.90;;;;;;4944942;28;20105;-77
2021/11/11 09:17:42;;;;;;;18.23;13.95;;;15.70;99.90;;;;;;4940308;28;20023;-78
2021/11/11 09:20:10;;;;;;;22.75;13.27;;;15.80;99.90;;;;;;4939264;28;20047;-75
2021/11/11 09:22:36;;;;;;;15.88;12.70;;;15.80;99.90;;;;;;4939484;28;20020;-76
2021/11/11 09:25:05;;;;;;;22.65;12.77;;;15.80;99.90;;;;;;4949458;28;20487;-80
2021/11/11 09:27:31;;;;;;;27.88;13.18;;;15.80;99.90;;;;;;4945475;28;20043;-76
2021/11/11 09:29:57;;;;;;;18.88;12.35;;;15.90;99.90;;;;;;4945580;28;20500;-75
2021/11/11 09:32:23;;;;;;;21.40;12.80;;;16.00;99.90;;;;;;4939959;28;20043;-75
2021/11/11 09:34:49;;;;;;;20.70;11.77;;;16.00;99.90;;;;;;4954532;28;20027;-75
2021/11/11 09:37:15;;;;;;;21.38;11.10;;;16.10;99.90;;;;;;4944787;28;20281;-75
2021/11/11 09:39:40;;;;;;;18.92;11.55;;;16.20;99.90;;;;;;4941212;28;20082;-75
2021/11/11 09:42:07;;;;;;;22.52;11.32;;;16.20;99.90;;;;;;4935045;28;20122;-75
2021/11/11 09:44:33;;;;;;;17.85;11.52;;;16.20;99.90;;;;;;4950202;28;20026;-75
2021/11/11 09:46:59;;;;;;;18.73;11.27;;;16.30;99.90;;;;;;4962335;28;20512;-75
2021/11/11 09:49:27;;;;;;;18.98;12.05;;;16.40;99.90;;;;;;4950581;28;20102;-75
2021/11/11 09:51:53;;;;;;;17.80;11.40;;;16.50;99.90;;;;;;4963824;28;20038;-75
2021/11/11 09:59:41;;;;;;;16.83;10.32;;;16.60;99.90;;;;;;4940949;28;20444;-75
2021/11/11 10:02:08;;;;;;;15.73;9.95;;;16.50;99.90;;;;;;4943076;28;20031;-74
2021/11/11 10:04:35;;;;;;;16.58;10.07;;;16.60;99.90;;;;;;4940705;28;20024;-75
2021/11/11 10:07:02;;;;;;;17.30;9.93;;;16.70;99.90;;;;;;4939549;28;20050;-75
2021/11/11 10:09:28;;;;;;;17.50;10.50;;;16.70;99.90;;;;;;4940107;28;20025;-76
2021/11/11 10:11:54;;;;;;;16.48;9.55;;;16.70;99.90;;;;;;4948916;28;20062;-74
2021/11/11 10:14:32;;;;;;;20.00;9.80;;;16.70;99.90;;;;;;4945024;28;20023;-74
2021/11/11 10:17:01;;;;;;;18.92;9.57;;;16.80;99.90;;;;;;4962262;28;20101;-75
2021/11/11 10:19:29;;;;;;;20.27;9.40;;;16.80;99.90;;;;;;4952909;28;20019;-76
2021/11/11 10:22:04;;;;;;;22.42;10.27;;;16.90;99.90;;;;;;5002205;28;20024;-75
2021/11/11 10:24:30;;;;;;;15.05;9.73;;;17.10;99.90;;;;;;4954778;28;20042;-74
2021/11/11 10:27:10;;;;;;;14.77;9.43;;;17.20;99.90;;;;;;5006222;28;20535;-74
2021/11/11 10:29:43;;;;;;;14.13;8.52;;;17.20;99.90;;;;;;4944020;28;20039;-75
2021/11/11 10:32:11;;;;;;;;;;;17.10;99.90;;;;;;4973478;28;20557;-74
2021/11/11 10:34:52;;;;;;;12.40;8.60;;;17.00;99.90;;;;;;4963521;28;20275;-74
2021/11/11 10:37:20;;;;;;;14.57;9.00;;;16.90;99.90;;;;;;4934526;28;20027;-75
2021/11/11 10:40:13;;;;;;;16.58;8.05;;;16.90;99.90;;;;;;4941152;28;20024;-75
2021/11/11 10:42:42;;;;;;;17.33;8.50;;;16.80;99.90;;;;;;4947387;28;20035;-74
2021/11/11 10:45:12;;;;;;;11.48;8.55;;;16.80;99.90;;;;;;4939047;28;20386;-74
2021/11/11 10:47:40;;;;;;;12.88;8.65;;;16.80;99.90;;;;;;4936190;28;20497;-76
2021/11/11 10:50:11;;;;;;;14.05;8.70;;;16.80;99.90;;;;;;4944359;28;20457;-74
2021/11/11 10:52:41;;;;;;;17.35;9.23;;;16.80;99.90;;;;;;4943661;28;20089;-76
2021/11/11 10:55:38;;;;;;;13.30;8.77;;;17.00;99.90;;;;;;4945001;28;20441;-76
2021/11/11 10:58:23;;;;;;;12.98;8.07;;;17.10;99.90;;;;;;4937831;28;20044;-75
2021/11/11 11:01:19;;;;;;;12.43;7.85;;;17.30;99.90;;;;;;4952209;28;20039;-75
2021/11/11 11:03:46;;;;;;;14.32;7.85;;;17.30;99.90;;;;;;4955315;28;20026;-75
2021/11/11 11:06:33;;;;;;;16.60;8.75;;;17.30;99.90;;;;;;4967466;28;20103;-73
2021/11/11 11:08:59;;;;;;;16.10;8.75;;;17.40;99.90;;;;;;4951685;28;20036;-77
2021/11/11 11:11:30;;;;;;;15.05;8.27;;;17.20;99.90;;;;;;4946769;28;20027;-75
2021/11/11 11:14:02;;;;;;;11.75;8.68;;;17.10;99.90;;;;;;5036676;28;20029;-74
2021/11/11 11:16:32;;;;;;;15.90;9.20;;;17.00;99.90;;;;;;4970378;28;20560;-75
2021/11/11 11:19:12;;;;;;;15.00;8.82;;;17.10;99.90;;;;;;4945359;28;20433;-74
2021/11/11 11:21:48;;;;;;;20.02;9.05;;;17.10;99.90;;;;;;4982718;28;20035;-75
2021/11/11 11:24:18;;;;;;;11.65;8.95;;;17.00;99.90;;;;;;4942109;28;20031;-75
2021/11/11 11:26:48;;;;;;;12.80;8.18;;;17.00;99.90;;;;;;4938392;28;20019;-74
2021/11/11 11:29:21;;;;;;;11.88;7.88;;;17.00;99.90;;;;;;4940793;28;20080;-75
2021/11/11 11:31:52;;;;;;;15.38;8.30;;;17.00;99.90;;;;;;4984179;28;20051;-75
2021/11/11 11:34:21;;;;;;;17.63;8.65;;;17.00;99.90;;;;;;4948847;28;20114;-74
2021/11/11 11:36:51;;;;;;;13.00;8.95;;;17.10;99.90;;;;;;4951715;28;20059;-75
2021/11/11 11:39:30;;;;;;;14.45;8.88;;;17.10;99.90;;;;;;4946980;28;20098;-74
2021/11/11 11:42:02;;;;;;;18.42;9.48;;;17.20;99.90;;;;;;4946486;28;20028;-76
2021/11/11 11:44:30;;;;;;;15.20;9.32;;;17.20;99.90;;;;;;4939878;28;20031;-78
2021/11/11 11:50:20;;;;;;;13.02;9.20;;;17.30;99.90;;;;;;4955033;28;20031;-75
2021/11/11 11:52:53;;;;;;;10.45;8.68;;;17.40;99.90;;;;;;4944622;28;20038;-75
2021/11/11 11:56:09;;;;;;;10.77;8.77;;;17.50;99.90;;;;;;4948152;28;20397;-76
2021/11/11 11:58:19;;;;;;;13.13;9.13;;;17.60;99.90;;;;;;4943564;28;20504;-75
2021/11/11 12:01:06;;;;;;;15.40;9.88;;;17.70;99.90;;;;;;4950038;28;20196;-75
2021/11/11 12:03:41;;;;;;;14.82;9.40;;;17.60;99.90;;;;;;4941840;28;20400;-75
2021/11/11 12:39:46;;;;;;;16.90;7.82;;;26.20;88.60;;;;;;4945279;28;20535;-76
2021/11/11 12:42:17;;;;;;;13.77;7.47;;;24.90;90.10;;;;;;4943675;28;20023;-77
2021/11/11 12:45:02;;;;;;;10.85;7.95;;;24.20;91.10;;;;;;4938828;28;20016;-76
2021/11/11 12:47:37;;;;;;;12.35;7.78;;;23.50;92.20;;;;;;4933466;28;20114;-75
2021/11/11 12:50:40;;;;;;;10.07;7.22;;;23.60;92.60;;;;;;4936372;28;20387;-76
2021/11/11 12:53:16;;;;;;;16.77;7.95;;;23.70;92.00;;;;;;4939064;28;20020;-77
2021/11/11 12:55:57;;;;;;;12.35;7.63;;;23.70;91.90;;;;;;4950432;28;20027;-76
2021/11/11 12:58:46;;;;;;;10.30;6.90;;;23.80;91.10;;;;;;4946214;28;20045;-77
2021/11/11 13:01:18;;;;;;;12.07;7.30;;;23.90;91.00;;;;;;4933400;28;20111;-77
2021/11/11 13:03:53;;;;;;;12.90;7.87;;;23.60;91.30;;;;;;4941055;28;20531;-75
2021/11/11 13:06:39;;;;;;;12.77;7.45;;;23.90;91.10;;;;;;4951211;28;20027;-76
2021/11/11 13:09:35;;;;;;;12.88;7.60;;;24.20;91.30;;;;;;4954391;28;20203;-76
2021/11/11 13:12:07;;;;;;;16.58;8.23;;;25.00;90.00;;;;;;4935464;28;20019;-76
2021/11/11 13:14:51;;;;;;;10.30;7.60;;;25.50;88.90;;;;;;4941324;28;20055;-78
2021/11/11 13:17:18;;;;;;;11.18;7.35;;;25.90;86.70;;;;;;4935508;28;20279;-77
2021/11/11 13:19:49;;;;;;;12.27;7.20;;;26.80;83.50;;;;;;4941442;28;20482;-75
2021/11/11 15:17:06;;;;;;;14.85;6.75;;;15.90;99.90;;;;;;4948327;28;20074;-78
2021/11/11 15:57:07;;;;;;;17.27;10.23;;;14.50;99.90;;;;;;4933181;28;20117;-75
2021/11/11 16:21:44;;;;;;;22.25;13.45;;;13.90;99.90;;;;;;4942113;28;20073;-79
2021/11/11 16:26:15;;;;;;;22.23;13.52;;;13.60;99.90;;;;;;4938561;28;20039;-77
2021/11/11 16:28:46;;;;;;;22.88;13.77;;;13.50;99.90;;;;;;4939355;28;20047;-77
2021/11/11 16:31:13;;;;;;;27.10;13.32;;;13.40;99.90;;;;;;4941760;28;20028;-76
2021/11/11 16:33:39;;;;;;;26.05;14.00;;;13.40;99.90;;;;;;4942958;28;20024;-76
2021/11/11 16:36:06;;;;;;;23.38;13.68;;;13.30;99.90;;;;;;4946834;28;20027;-79
2021/11/11 16:38:33;;;;;;;23.45;14.23;;;13.20;99.90;;;;;;4983095;28;20033;-76
2021/11/11 16:40:59;;;;;;;30.30;15.65;;;13.20;99.90;;;;;;4952777;28;20521;-74
2021/11/11 16:43:25;;;;;;;22.05;14.25;;;13.10;99.90;;;;;;4944983;28;20145;-75
2021/11/11 16:45:51;;;;;;;22.75;14.23;;;13.00;99.90;;;;;;4948353;28;20089;-75